Time;durP1;ratioP1;P1;durP2;ratioP2;P2;SDS_P1;SDS_P2;PMS_P1;PMS_P2;Temp;Humidity;BMP_temperature;BMP_pressure;BME280_temperature;BME280_humidity;BME280_pressure;Samples;Min_cycle;Max_cycle;Signal;HPM_P1;HPM_P2
2021/11/27 00:01:25;;;;;;;25.38;15.13;;;2.20;98.20;;;;;;5009709;28;20018;-74
2021/11/27 00:03:54;;;;;;;25.48;15.55;;;2.20;98.30;;;;;;5007017;28;20029;-73
2021/11/27 00:06:24;;;;;;;24.77;14.20;;;2.20;98.30;;;;;;5005426;28;20025;-73
2021/11/27 00:08:49;;;;;;;23.98;14.90;;;2.20;98.30;;;;;;5014694;28;20452;-74
2021/11/27 00:11:15;;;;;;;23.98;14.77;;;2.20;98.30;;;;;;5005458;28;20026;-74
2021/11/27 00:13:41;;;;;;;23.10;15.00;;;2.20;98.30;;;;;;5001697;28;20033;-74
2021/11/27 00:16:06;;;;;;;24.83;15.55;;;2.20;98.40;;;;;;5009101;28;20117;-73
2021/11/27 00:18:32;;;;;;;22.52;13.82;;;2.20;98.30;;;;;;5005755;28;20076;-73
2021/11/27 00:21:10;;;;;;;21.55;14.55;;;2.20;98.30;;;;;;5004154;28;20037;-73
2021/11/27 00:23:38;;;;;;;21.77;14.02;;;2.20;98.30;;;;;;5007227;28;20097;-74
2021/11/27 00:26:06;;;;;;;25.65;14.65;;;2.20;98.30;;;;;;5003733;28;20120;-73
2021/11/27 00:28:32;;;;;;;22.50;13.68;;;2.30;98.30;;;;;;5003116;28;20038;-74
2021/11/27 00:31:02;;;;;;;21.50;14.13;;;2.30;98.30;;;;;;5006377;28;20545;-74
2021/11/27 00:33:28;;;;;;;23.52;15.00;;;2.30;98.20;;;;;;5014430;28;20030;-73
2021/11/27 00:35:54;;;;;;;21.95;13.77;;;2.30;98.30;;;;;;5005354;28;20046;-74
2021/11/27 00:38:20;;;;;;;20.50;12.27;;;2.30;98.30;;;;;;5004342;28;20037;-74
2021/11/27 00:40:46;;;;;;;21.00;14.18;;;2.30;98.20;;;;;;5023295;28;20033;-73
2021/11/27 00:43:12;;;;;;;24.52;14.05;;;2.30;98.10;;;;;;5024764;28;20041;-74
2021/11/27 00:45:40;;;;;;;21.25;12.80;;;2.30;98.20;;;;;;5001012;28;20026;-74
2021/11/27 00:48:07;;;;;;;23.08;13.77;;;2.30;98.10;;;;;;5021370;28;20032;-74
2021/11/27 00:50:43;;;;;;;17.83;11.93;;;2.30;98.10;;;;;;5001892;28;20490;-74
2021/11/27 00:53:09;;;;;;;19.92;11.48;;;2.30;98.00;;;;;;5001654;28;20045;-74
2021/11/27 00:55:35;;;;;;;23.00;13.10;;;2.30;97.90;;;;;;5020343;28;20491;-73
2021/11/27 00:58:02;;;;;;;20.08;12.65;;;2.30;98.00;;;;;;5002812;28;20062;-74
2021/11/27 01:00:33;;;;;;;20.95;12.80;;;2.30;98.00;;;;;;5014189;28;20018;-74
2021/11/27 01:03:01;;;;;;;18.65;11.98;;;2.30;98.00;;;;;;5000103;28;20022;-74
2021/11/27 01:05:27;;;;;;;19.70;12.75;;;2.40;98.00;;;;;;5004905;28;20497;-74
2021/11/27 01:07:53;;;;;;;20.92;12.68;;;2.30;97.90;;;;;;5001059;28;20026;-74
2021/11/27 01:10:23;;;;;;;18.15;11.65;;;2.30;98.00;;;;;;5006366;28;20038;-74
2021/11/27 01:12:48;;;;;;;19.13;12.50;;;2.40;97.90;;;;;;5002605;28;20022;-73
2021/11/27 01:15:17;;;;;;;18.83;12.70;;;2.40;98.00;;;;;;5001886;28;20034;-73
2021/11/27 01:17:44;;;;;;;24.23;13.80;;;2.30;97.90;;;;;;5001283;28;20114;-72
2021/11/27 01:20:12;;;;;;;20.48;12.23;;;2.40;98.00;;;;;;4998347;28;20021;-74
2021/11/27 01:22:38;;;;;;;18.63;12.05;;;2.30;97.80;;;;;;5020052;28;20018;-73
2021/11/27 01:25:05;;;;;;;19.67;12.57;;;2.30;97.80;;;;;;5007781;28;20041;-74
2021/11/27 01:27:31;;;;;;;18.20;11.52;;;2.40;97.90;;;;;;5000302;28;20030;-74
2021/11/27 01:29:57;;;;;;;19.65;12.38;;;2.40;97.80;;;;;;5001132;28;20038;-74
2021/11/27 01:32:23;;;;;;;23.33;13.82;;;2.40;97.80;;;;;;5021932;28;20092;-74
2021/11/27 01:34:49;;;;;;;20.10;12.65;;;2.40;97.80;;;;;;5003306;28;20036;-73
2021/11/27 01:37:15;;;;;;;19.55;12.30;;;2.40;97.80;;;;;;5016147;28;20473;-74
2021/11/27 01:39:42;;;;;;;22.88;14.07;;;2.40;97.70;;;;;;5003884;28;20099;-74
2021/11/27 01:42:09;;;;;;;18.35;11.63;;;2.40;97.70;;;;;;5006557;28;20049;-74
2021/11/27 01:44:35;;;;;;;20.15;12.32;;;2.40;97.60;;;;;;5001691;28;20026;-74
2021/11/27 01:47:01;;;;;;;20.70;11.05;;;2.40;97.50;;;;;;5001380;28;20034;-73
2021/11/27 01:49:27;;;;;;;19.92;11.13;;;2.40;97.50;;;;;;5018303;28;20026;-74
2021/11/27 01:51:53;;;;;;;19.20;11.02;;;2.40;97.60;;;;;;5006098;28;20155;-74
2021/11/27 01:54:19;;;;;;;20.45;12.00;;;2.40;97.50;;;;;;5001706;28;20050;-73
2021/11/27 01:56:48;;;;;;;21.50;12.52;;;2.40;97.50;;;;;;5008699;28;20038;-74
2021/11/27 01:59:16;;;;;;;21.30;11.48;;;2.40;97.60;;;;;;5005012;28;20028;-74
2021/11/27 02:01:43;;;;;;;20.42;12.75;;;2.40;97.60;;;;;;5023594;28;20057;-74
2021/11/27 02:04:11;;;;;;;19.27;11.57;;;2.40;97.60;;;;;;4996436;28;20026;-74
2021/11/27 02:06:40;;;;;;;20.25;12.23;;;2.50;97.50;;;;;;5020339;28;20773;-73
2021/11/27 02:09:11;;;;;;;18.92;11.90;;;2.50;97.50;;;;;;5004185;28;20056;-74
2021/11/27 02:11:37;;;;;;;17.90;10.93;;;2.50;97.50;;;;;;5019467;28;20064;-73
2021/11/27 02:14:05;;;;;;;21.00;11.70;;;2.40;97.50;;;;;;5020767;28;20038;-74
2021/11/27 02:16:30;;;;;;;17.25;10.57;;;2.50;97.40;;;;;;4999626;28;20022;-74
2021/11/27 02:18:56;;;;;;;16.65;10.93;;;2.40;97.40;;;;;;5004236;28;20033;-74
2021/11/27 02:21:23;;;;;;;17.48;11.98;;;2.50;97.40;;;;;;5018756;28;20026;-74
2021/11/27 02:23:51;;;;;;;17.15;10.98;;;2.40;97.50;;;;;;5018425;28;20022;-74
2021/11/27 02:26:19;;;;;;;19.55;11.45;;;2.40;97.50;;;;;;5022395;28;20077;-74
2021/11/27 02:28:49;;;;;;;18.75;11.38;;;2.40;97.50;;;;;;5001867;28;20129;-74
2021/11/27 02:31:14;;;;;;;20.38;11.38;;;2.40;97.50;;;;;;5006657;28;20018;-74
2021/11/27 02:33:40;;;;;;;19.70;12.13;;;2.40;97.50;;;;;;5018957;28;20026;-74
2021/11/27 02:36:06;;;;;;;21.48;11.30;;;2.40;97.60;;;;;;5007072;28;20038;-74
2021/11/27 02:38:32;;;;;;;19.80;11.82;;;2.40;97.70;;;;;;5005032;28;20073;-73
2021/11/27 02:40:57;;;;;;;20.80;11.48;;;2.40;97.70;;;;;;5004989;28;20419;-74
2021/11/27 02:43:23;;;;;;;18.50;12.15;;;2.40;97.70;;;;;;5021707;28;20033;-74
2021/11/27 02:45:49;;;;;;;18.85;12.32;;;2.40;97.70;;;;;;5005788;28;20495;-73
2021/11/27 02:48:14;;;;;;;18.10;11.23;;;2.40;97.80;;;;;;5005203;28;20423;-75
2021/11/27 02:50:40;;;;;;;18.73;11.23;;;2.40;97.80;;;;;;5011538;28;20022;-73
2021/11/27 02:53:06;;;;;;;18.48;10.20;;;2.40;97.80;;;;;;5006898;28;20057;-74
2021/11/27 02:55:32;;;;;;;21.00;12.18;;;2.40;97.80;;;;;;4996472;28;20041;-73
2021/11/27 02:57:57;;;;;;;20.95;12.18;;;2.30;97.90;;;;;;5008067;28;20045;-73
2021/11/27 03:00:24;;;;;;;18.95;11.90;;;2.30;97.90;;;;;;5025380;28;20026;-74
2021/11/27 03:02:50;;;;;;;22.00;12.52;;;2.40;97.90;;;;;;5015699;28;20394;-73
2021/11/27 03:05:17;;;;;;;22.10;12.82;;;2.30;97.90;;;;;;5007783;28;20033;-73
2021/11/27 03:07:43;;;;;;;21.05;11.73;;;2.30;98.00;;;;;;5009352;28;20029;-72
2021/11/27 03:10:10;;;;;;;17.08;9.95;;;2.30;98.00;;;;;;5009060;28;20080;-73
2021/11/27 03:12:36;;;;;;;22.83;12.98;;;2.20;98.00;;;;;;5006106;28;20065;-73
2021/11/27 03:15:02;;;;;;;22.42;12.13;;;2.20;98.10;;;;;;5007069;28;20618;-73
2021/11/27 03:17:28;;;;;;;21.52;12.65;;;2.20;98.20;;;;;;5006854;28;20491;-74
2021/11/27 03:19:55;;;;;;;20.20;12.43;;;2.20;98.20;;;;;;5001233;28;20019;-74
2021/11/27 03:22:21;;;;;;;24.45;12.68;;;2.20;98.30;;;;;;5008902;28;20018;-73
2021/11/27 03:24:46;;;;;;;21.35;13.45;;;2.20;98.30;;;;;;5004985;28;20080;-73
2021/11/27 03:27:14;;;;;;;21.63;12.75;;;2.20;98.40;;;;;;5010162;28;20030;-73
2021/11/27 03:29:41;;;;;;;26.25;13.00;;;2.10;98.40;;;;;;5007799;28;20052;-73
2021/11/27 03:32:09;;;;;;;20.40;12.95;;;2.10;98.40;;;;;;5007480;28;20521;-73
2021/11/27 03:34:35;;;;;;;24.17;13.13;;;2.10;98.40;;;;;;5006583;28;20502;-73
2021/11/27 03:37:01;;;;;;;21.50;13.43;;;2.20;98.50;;;;;;5007553;28;20054;-73
2021/11/27 03:39:27;;;;;;;24.90;14.55;;;2.20;98.50;;;;;;5007266;28;20105;-73
2021/11/27 03:41:53;;;;;;;23.38;13.80;;;2.20;98.60;;;;;;5009777;28;20512;-73
2021/11/27 03:44:19;;;;;;;25.30;13.75;;;2.20;98.60;;;;;;5019270;28;20033;-72
2021/11/27 03:46:44;;;;;;;26.95;14.77;;;2.20;98.60;;;;;;5006646;28;20034;-73
2021/11/27 03:49:10;;;;;;;25.02;13.75;;;2.20;98.60;;;;;;5021038;28;20433;-73
2021/11/27 03:51:35;;;;;;;26.50;14.73;;;2.10;98.70;;;;;;5007143;28;20056;-73
2021/11/27 03:54:01;;;;;;;27.75;15.55;;;2.10;98.70;;;;;;5003110;28;20057;-73
2021/11/27 03:56:29;;;;;;;26.48;14.15;;;2.10;98.70;;;;;;5032822;23;20046;-74
2021/11/27 03:59:01;;;;;;;25.73;14.48;;;2.10;98.70;;;;;;5014687;28;20029;-74
2021/11/27 04:01:27;;;;;;;29.33;14.52;;;2.10;98.80;;;;;;5026561;28;20056;-74
2021/11/27 04:03:56;;;;;;;28.88;14.43;;;2.10;98.80;;;;;;5020231;28;20030;-74
2021/11/27 04:06:22;;;;;;;26.00;14.82;;;2.10;98.80;;;;;;5024169;28;20028;-74
2021/11/27 04:08:48;;;;;;;26.20;14.57;;;2.10;98.80;;;;;;5039509;28;20421;-74
2021/11/27 04:11:14;;;;;;;29.08;14.38;;;2.10;98.80;;;;;;5033857;28;20048;-75
2021/11/27 04:13:39;;;;;;;26.33;14.88;;;2.10;98.80;;;;;;5036188;28;20115;-74
2021/11/27 04:16:05;;;;;;;28.83;15.68;;;2.10;98.80;;;;;;5052980;28;20036;-74
2021/11/27 04:18:31;;;;;;;24.63;14.32;;;2.10;98.90;;;;;;5032418;28;20026;-73
2021/11/27 04:20:56;;;;;;;28.38;14.15;;;2.10;98.90;;;;;;5030572;28;20107;-73
2021/11/27 04:23:24;;;;;;;24.33;12.98;;;2.10;98.80;;;;;;5038219;28;20157;-76
2021/11/27 04:25:50;;;;;;;26.95;15.20;;;2.10;98.90;;;;;;5032208;28;20034;-74
2021/11/27 04:28:16;;;;;;;27.95;14.75;;;2.10;98.90;;;;;;5040013;28;20037;-74
2021/11/27 04:30:43;;;;;;;29.45;15.25;;;2.10;98.90;;;;;;5038132;28;20565;-74
2021/11/27 04:33:09;;;;;;;28.05;14.82;;;2.10;98.90;;;;;;5047307;28;20028;-74
2021/11/27 04:35:35;;;;;;;27.02;14.85;;;2.10;98.90;;;;;;5036981;28;20397;-75
2021/11/27 04:38:01;;;;;;;29.38;15.75;;;2.10;98.90;;;;;;5028488;28;20021;-74
2021/11/27 04:40:28;;;;;;;27.40;15.57;;;2.10;98.90;;;;;;5037065;28;20021;-75
2021/11/27 04:42:53;;;;;;;31.73;15.02;;;2.10;98.90;;;;;;5047310;28;20028;-74
2021/11/27 04:45:19;;;;;;;30.50;15.68;;;2.10;98.90;;;;;;5051083;28;20047;-74
2021/11/27 04:47:45;;;;;;;31.38;16.30;;;2.10;98.90;;;;;;5056609;28;20056;-75
2021/11/27 04:50:14;;;;;;;29.77;15.95;;;2.10;98.90;;;;;;5041271;28;20068;-74
2021/11/27 04:52:40;;;;;;;30.45;16.48;;;2.10;98.90;;;;;;5030763;28;20021;-75
2021/11/27 04:55:07;;;;;;;27.83;15.35;;;2.10;99.00;;;;;;5041821;28;20465;-74
2021/11/27 04:57:33;;;;;;;32.67;16.33;;;2.10;99.00;;;;;;5031003;28;20033;-74
2021/11/27 04:59:58;;;;;;;32.65;16.50;;;2.10;99.00;;;;;;5053756;28;20028;-75
2021/11/27 05:02:24;;;;;;;32.17;15.93;;;2.10;99.00;;;;;;5038858;28;20074;-75
2021/11/27 05:04:49;;;;;;;33.65;16.83;;;2.10;99.00;;;;;;5031704;28;20212;-75
2021/11/27 05:07:15;;;;;;;31.48;15.30;;;2.10;99.00;;;;;;5050547;28;20030;-75
2021/11/27 05:09:41;;;;;;;28.52;16.00;;;2.10;99.00;;;;;;5040874;28;20420;-75
2021/11/27 05:12:07;;;;;;;36.15;16.83;;;2.10;99.00;;;;;;5034020;28;20032;-74
2021/11/27 05:14:32;;;;;;;31.45;15.43;;;2.10;99.00;;;;;;5050741;28;20167;-74
2021/11/27 05:16:58;;;;;;;34.78;16.40;;;2.10;99.00;;;;;;5039931;28;20195;-74
2021/11/27 05:19:23;;;;;;;30.35;16.42;;;2.10;99.00;;;;;;5042267;28;20036;-75
2021/11/27 05:21:50;;;;;;;36.15;16.10;;;2.10;99.00;;;;;;5034860;28;20032;-75
2021/11/27 05:24:15;;;;;;;30.17;16.98;;;2.10;99.00;;;;;;5041287;28;20025;-75
2021/11/27 05:26:41;;;;;;;32.33;16.80;;;2.10;99.00;;;;;;5049857;28;20107;-75
2021/11/27 05:29:06;;;;;;;32.50;15.27;;;2.10;99.00;;;;;;5028925;28;20059;-74
2021/11/27 05:31:32;;;;;;;27.90;14.80;;;2.10;99.00;;;;;;5040087;28;20032;-75
2021/11/27 05:36:34;;;;;;;33.42;16.58;;;2.10;98.90;;;;;;5042814;28;20327;-74
2021/11/27 05:38:59;;;;;;;37.13;16.35;;;2.10;99.00;;;;;;5031324;28;20034;-75
2021/11/27 05:41:26;;;;;;;31.67;16.23;;;2.10;98.90;;;;;;5046366;28;20032;-75
2021/11/27 05:43:53;;;;;;;28.85;16.05;;;2.10;99.00;;;;;;5030893;28;20024;-74
2021/11/27 05:46:19;;;;;;;32.08;16.90;;;2.10;98.90;;;;;;5038288;28;20128;-74
2021/11/27 05:48:44;;;;;;;31.50;15.98;;;2.10;98.90;;;;;;5034252;28;20128;-75
2021/11/27 05:51:10;;;;;;;28.88;15.52;;;2.10;98.90;;;;;;5033512;28;20037;-75
2021/11/27 05:53:35;;;;;;;31.27;15.82;;;2.10;98.90;;;;;;5044608;28;20108;-77
2021/11/27 05:56:01;;;;;;;30.83;15.95;;;2.10;99.00;;;;;;5028619;28;20082;-75
2021/11/27 05:58:26;;;;;;;31.65;16.75;;;2.10;99.00;;;;;;5039231;28;20032;-75
2021/11/27 06:00:52;;;;;;;32.60;17.55;;;2.10;99.00;;;;;;5035359;28;20503;-77
2021/11/27 06:03:18;;;;;;;30.92;16.33;;;2.10;99.00;;;;;;5052418;28;20072;-75
2021/11/27 06:05:44;;;;;;;30.75;17.38;;;2.10;99.00;;;;;;5042171;28;20021;-76
2021/11/27 06:08:10;;;;;;;34.47;16.50;;;2.10;99.10;;;;;;5034010;28;20572;-78
2021/11/27 06:10:35;;;;;;;29.98;16.27;;;2.10;99.10;;;;;;5032031;28;20025;-76
2021/11/27 06:13:02;;;;;;;37.08;18.33;;;2.10;98.90;;;;;;5036737;28;20025;-75
2021/11/27 06:15:27;;;;;;;35.05;17.73;;;2.20;99.00;;;;;;5053881;28;20029;-75
2021/11/27 06:17:53;;;;;;;37.40;18.90;;;2.10;98.90;;;;;;5035217;28;20083;-75
2021/11/27 06:20:20;;;;;;;30.63;16.95;;;2.20;98.90;;;;;;5035195;28;20056;-75
2021/11/27 06:22:46;;;;;;;36.05;18.35;;;2.10;98.90;;;;;;5030809;28;20033;-75
2021/11/27 06:25:12;;;;;;;38.22;18.45;;;2.20;98.90;;;;;;5041835;28;20029;-75
2021/11/27 06:27:38;;;;;;;36.78;18.83;;;2.20;98.90;;;;;;5052560;28;20113;-74
2021/11/27 06:30:05;;;;;;;33.55;18.05;;;2.20;98.90;;;;;;5040444;28;20537;-75
2021/11/27 06:32:31;;;;;;;31.90;17.75;;;2.20;98.90;;;;;;5043482;28;20021;-75
2021/11/27 06:34:57;;;;;;;32.28;18.77;;;2.20;98.90;;;;;;5033717;28;20175;-75
2021/11/27 06:37:24;;;;;;;33.85;18.70;;;2.20;98.90;;;;;;5039082;28;20014;-73
2021/11/27 06:39:50;;;;;;;34.08;18.08;;;2.20;98.80;;;;;;5030423;28;20022;-75
2021/11/27 06:42:17;;;;;;;36.55;18.48;;;2.20;98.90;;;;;;5054088;28;20070;-75
2021/11/27 06:44:49;;;;;;;31.48;17.23;;;2.20;98.90;;;;;;5030386;28;20029;-77
2021/11/27 06:47:17;;;;;;;34.63;18.60;;;2.30;98.90;;;;;;5050790;28;20047;-76
2021/11/27 06:49:44;;;;;;;32.75;18.00;;;2.20;98.80;;;;;;5046840;28;20402;-75
2021/11/27 06:52:10;;;;;;;29.10;16.42;;;2.30;98.80;;;;;;5035358;28;20104;-75
2021/11/27 06:54:37;;;;;;;37.88;17.88;;;2.20;98.70;;;;;;5035590;28;20013;-74
2021/11/27 06:57:03;;;;;;;35.40;17.13;;;2.30;98.80;;;;;;5046035;28;20055;-74
2021/11/27 06:59:28;;;;;;;32.67;17.23;;;2.20;98.70;;;;;;5032308;28;20673;-75
2021/11/27 07:01:54;;;;;;;29.83;17.52;;;2.20;98.70;;;;;;5036070;28;20029;-75
2021/11/27 07:04:20;;;;;;;31.45;17.40;;;2.20;98.60;;;;;;5030190;28;20026;-75
2021/11/27 07:06:46;;;;;;;31.10;17.15;;;2.20;98.60;;;;;;5043506;28;20028;-75
2021/11/27 07:09:12;;;;;;;28.65;15.95;;;2.20;98.60;;;;;;5033386;28;20044;-75
2021/11/27 07:11:38;;;;;;;30.88;16.90;;;2.20;98.50;;;;;;5028385;28;20028;-74
2021/11/27 07:14:03;;;;;;;35.67;17.30;;;2.20;98.50;;;;;;5030553;28;20025;-74
2021/11/27 07:16:29;;;;;;;31.08;17.73;;;2.20;98.60;;;;;;5033999;28;20029;-74
2021/11/27 07:18:54;;;;;;;30.73;17.05;;;2.20;98.60;;;;;;5032441;28;20485;-74
2021/11/27 07:21:20;;;;;;;38.35;17.58;;;2.20;98.60;;;;;;5044919;28;20100;-74
2021/11/27 07:23:46;;;;;;;35.17;17.67;;;2.20;98.60;;;;;;5035099;28;20368;-74
2021/11/27 07:26:11;;;;;;;34.28;17.13;;;2.20;98.60;;;;;;5048348;28;20190;-74
2021/11/27 07:28:37;;;;;;;32.60;17.70;;;2.20;98.60;;;;;;5036809;28;20512;-74
2021/11/27 07:31:03;;;;;;;36.00;18.80;;;2.20;98.70;;;;;;5053882;28;20025;-74
2021/11/27 07:38:32;;;;;;;37.10;18.60;;;2.30;98.70;;;;;;4928202;28;20062;-73
2021/11/27 07:40:59;;;;;;;31.67;17.60;;;2.30;98.70;;;;;;4941726;28;20118;-72
2021/11/27 07:43:24;;;;;;;32.40;18.45;;;2.30;98.80;;;;;;4944899;28;20352;-73
2021/11/27 07:45:50;;;;;;;36.88;19.90;;;2.30;98.80;;;;;;4946629;29;20043;-73
2021/11/27 07:48:16;;;;;;;34.33;18.60;;;2.30;98.80;;;;;;4925080;29;20343;-73
2021/11/27 07:50:42;;;;;;;32.83;18.40;;;2.30;98.70;;;;;;4952687;23;20384;-67
2021/11/27 07:53:07;;;;;;;28.85;17.83;;;2.30;98.80;;;;;;4936739;28;20043;-64
2021/11/27 07:55:33;;;;;;;30.15;18.10;;;2.30;98.60;;;;;;4934372;28;20040;-67
2021/11/27 07:57:59;;;;;;;32.63;17.60;;;2.40;98.70;;;;;;4937494;29;20027;-66
2021/11/27 08:00:25;;;;;;;34.58;19.27;;;2.40;98.80;;;;;;4931848;28;20090;-67
2021/11/27 08:02:51;;;;;;;31.55;17.65;;;2.40;98.70;;;;;;4941382;28;20305;-64
2021/11/27 08:05:16;;;;;;;28.60;17.25;;;2.50;98.70;;;;;;4937246;28;20118;-66
2021/11/27 08:07:41;;;;;;;31.52;18.58;;;2.50;98.70;;;;;;4937584;28;20425;-67
2021/11/27 08:10:10;;;;;;;36.25;18.65;;;2.50;98.70;;;;;;4945079;28;20471;-64
2021/11/27 08:12:36;;;;;;;33.30;18.42;;;2.50;98.70;;;;;;4943573;28;20375;-67
2021/11/27 08:15:04;;;;;;;30.08;17.75;;;2.50;98.60;;;;;;4945766;28;20093;-67
2021/11/27 08:17:29;;;;;;;33.08;18.02;;;2.60;98.70;;;;;;4935462;28;20031;-65
2021/11/27 08:19:55;;;;;;;32.78;17.73;;;2.60;98.70;;;;;;4940305;28;20027;-64
2021/11/27 08:22:20;;;;;;;28.60;17.35;;;2.60;98.60;;;;;;4939524;28;20031;-65
2021/11/27 08:24:47;;;;;;;34.45;17.70;;;2.70;98.70;;;;;;4929892;28;20058;-65
2021/11/27 08:27:13;;;;;;;28.17;16.92;;;2.70;98.60;;;;;;4937539;28;20023;-64
2021/11/27 08:29:39;;;;;;;28.92;16.48;;;2.60;98.40;;;;;;4922567;29;20082;-65
2021/11/27 08:32:05;;;;;;;26.20;16.63;;;2.60;98.40;;;;;;4940028;28;20043;-64
2021/11/27 08:34:30;;;;;;;28.02;16.63;;;2.70;98.50;;;;;;4941062;28;20075;-64
2021/11/27 08:36:55;;;;;;;29.45;16.42;;;2.70;98.40;;;;;;4931796;28;20126;-65
2021/11/27 08:39:21;;;;;;;28.27;17.08;;;2.70;98.40;;;;;;4935113;28;20105;-64
2021/11/27 08:41:47;;;;;;;30.85;16.65;;;2.70;98.40;;;;;;4925691;28;20047;-64
2021/11/27 08:44:13;;;;;;;32.22;16.88;;;2.70;98.30;;;;;;4953443;28;20034;-64
2021/11/27 08:46:39;;;;;;;28.83;16.70;;;2.80;98.30;;;;;;4933208;28;20030;-64
2021/11/27 08:49:05;;;;;;;30.98;16.88;;;2.70;98.30;;;;;;4942940;28;20110;-65
2021/11/27 08:51:30;;;;;;;30.50;17.30;;;2.70;98.30;;;;;;4935238;28;20474;-64
2021/11/27 08:53:56;;;;;;;27.67;16.60;;;2.70;98.30;;;;;;4941520;28;20031;-65
2021/11/27 08:56:22;;;;;;;30.02;17.20;;;2.70;98.10;;;;;;4938041;28;20050;-65
2021/11/27 08:58:47;;;;;;;27.35;17.13;;;2.70;98.20;;;;;;4936897;28;20487;-65
2021/11/27 09:01:13;;;;;;;30.90;17.92;;;2.70;98.10;;;;;;4940995;28;20055;-65
2021/11/27 09:03:41;;;;;;;31.90;18.00;;;2.70;98.10;;;;;;4925300;28;20087;-64
2021/11/27 09:06:07;;;;;;;30.02;17.25;;;2.70;98.10;;;;;;4946225;28;20434;-64
2021/11/27 09:08:37;;;;;;;26.45;16.20;;;2.70;98.00;;;;;;4934605;28;20058;-64
2021/11/27 09:11:05;;;;;;;27.90;16.27;;;2.70;98.00;;;;;;4940461;28;20298;-65
2021/11/27 09:13:31;;;;;;;24.38;15.23;;;2.70;98.00;;;;;;4927929;28;20190;-64
2021/11/27 09:15:56;;;;;;;27.60;16.95;;;2.70;98.00;;;;;;4930243;28;20429;-64
2021/11/27 09:18:22;;;;;;;27.50;16.17;;;2.70;98.00;;;;;;4937705;28;20032;-63
2021/11/27 09:20:48;;;;;;;29.40;17.60;;;2.80;98.10;;;;;;4932428;28;20023;-66
2021/11/27 09:23:13;;;;;;;29.30;16.83;;;2.90;98.10;;;;;;4945561;28;20030;-65
2021/11/27 09:25:39;;;;;;;28.48;16.80;;;2.90;98.10;;;;;;4934791;28;20478;-64
2021/11/27 09:28:04;;;;;;;26.70;16.35;;;2.90;98.20;;;;;;4946292;28;20494;-64
2021/11/27 09:30:30;;;;;;;27.60;17.23;;;2.90;98.20;;;;;;4941009;28;20031;-63
2021/11/27 09:32:56;;;;;;;28.73;16.98;;;2.90;98.10;;;;;;4932218;28;20035;-64
2021/11/27 09:35:22;;;;;;;26.63;16.65;;;2.80;98.00;;;;;;4938443;28;20035;-65
2021/11/27 09:37:49;;;;;;;29.90;16.65;;;2.70;97.90;;;;;;4939922;28;20107;-65
2021/11/27 09:40:15;;;;;;;28.17;17.25;;;2.70;97.90;;;;;;4943431;28;20023;-63
2021/11/27 09:42:41;;;;;;;26.13;15.80;;;2.70;98.00;;;;;;4938648;28;20047;-64
2021/11/27 09:45:08;;;;;;;30.63;16.75;;;2.70;97.80;;;;;;4942591;28;20652;-66
2021/11/27 09:47:35;;;;;;;29.05;16.83;;;2.60;97.90;;;;;;4945012;28;20027;-66
2021/11/27 09:50:04;;;;;;;30.13;17.95;;;2.70;98.00;;;;;;4928677;28;20086;-66
2021/11/27 09:52:29;;;;;;;29.75;18.00;;;2.80;98.10;;;;;;4933821;28;20035;-66
2021/11/27 09:54:56;;;;;;;29.25;17.58;;;2.80;98.10;;;;;;4936916;28;20036;-66
2021/11/27 09:57:21;;;;;;;31.55;17.65;;;2.70;98.00;;;;;;4957645;28;20031;-66
2021/11/27 09:59:47;;;;;;;29.92;17.50;;;2.70;98.10;;;;;;4932781;28;20525;-66
2021/11/27 10:02:17;;;;;;;32.28;18.33;;;2.80;98.20;;;;;;4940492;28;20115;-66
2021/11/27 10:04:49;;;;;;;32.77;18.10;;;2.70;98.10;;;;;;4929266;28;20031;-66
2021/11/27 10:07:17;;;;;;;32.42;18.70;;;2.70;98.10;;;;;;4938208;28;20502;-66
2021/11/27 10:09:45;;;;;;;31.65;19.33;;;2.80;98.20;;;;;;4936168;28;20061;-66
2021/11/27 10:12:12;;;;;;;30.70;18.85;;;2.80;98.30;;;;;;4933241;28;20032;-66
2021/11/27 10:14:39;;;;;;;30.90;18.23;;;2.80;98.10;;;;;;4925948;28;20035;-66
2021/11/27 10:17:10;;;;;;;31.10;17.83;;;2.70;98.10;;;;;;4939602;28;20504;-66
2021/11/27 10:19:42;;;;;;;27.90;17.10;;;2.70;98.00;;;;;;4933919;28;20022;-66
2021/11/27 10:22:09;;;;;;;33.00;18.23;;;2.70;98.10;;;;;;4933380;28;20506;-66
2021/11/27 10:24:36;;;;;;;29.25;17.58;;;2.70;98.20;;;;;;4933974;28;20058;-65
2021/11/27 10:27:03;;;;;;;30.15;18.60;;;2.70;98.10;;;;;;4936031;28;20454;-65
2021/11/27 10:29:35;;;;;;;32.70;19.27;;;2.70;98.20;;;;;;4934012;28;20523;-66
2021/11/27 10:32:16;;;;;;;32.13;17.23;;;2.80;98.30;;;;;;4932943;28;20036;-67
2021/11/27 10:34:54;;;;;;;36.25;17.98;;;2.80;98.20;;;;;;4936908;28;20039;-66
2021/11/27 10:37:27;;;;;;;35.15;18.55;;;2.80;98.20;;;;;;4934956;28;20383;-66
2021/11/27 10:40:13;;;;;;;27.20;17.13;;;2.80;98.20;;;;;;4933436;28;20023;-66
2021/11/27 10:42:49;;;;;;;28.70;17.00;;;2.70;98.10;;;;;;4938643;28;20395;-66
2021/11/27 10:45:26;;;;;;;31.00;16.83;;;2.70;98.10;;;;;;4934855;28;20032;-66
2021/11/27 10:48:07;;;;;;;29.08;17.05;;;2.70;98.10;;;;;;4933857;28;20054;-66
2021/11/27 10:50:44;;;;;;;31.13;16.65;;;2.70;98.10;;;;;;4939656;28;20023;-66
2021/11/27 10:53:13;;;;;;;30.45;18.17;;;2.80;98.30;;;;;;4944625;28;20073;-66
2021/11/27 10:55:40;;;;;;;31.00;17.90;;;2.80;98.20;;;;;;4944559;28;20447;-66
2021/11/27 10:58:08;;;;;;;32.45;18.70;;;2.80;98.10;;;;;;4938321;28;20375;-66
2021/11/27 11:00:45;;;;;;;26.10;16.85;;;2.80;98.20;;;;;;4942725;28;20059;-66
2021/11/27 11:03:30;;;;;;;28.58;15.95;;;2.80;98.10;;;;;;4941061;28;20324;-67
2021/11/27 11:05:58;;;;;;;24.17;15.13;;;2.70;98.20;;;;;;4942011;28;20393;-66
2021/11/27 11:08:35;;;;;;;25.83;14.52;;;2.70;98.10;;;;;;4937781;28;20051;-66
2021/11/27 11:11:20;;;;;;;20.33;12.75;;;2.60;98.00;;;;;;4938381;28;20035;-65
2021/11/27 11:13:53;;;;;;;22.13;13.32;;;2.60;97.90;;;;;;4932013;28;20034;-66
2021/11/27 11:16:19;;;;;;;22.48;13.63;;;2.60;98.00;;;;;;4923942;29;20054;-65
2021/11/27 11:18:48;;;;;;;18.80;12.10;;;2.60;98.00;;;;;;4944196;28;20028;-66
2021/11/27 11:21:13;;;;;;;20.90;12.93;;;2.50;97.80;;;;;;4945526;28;20032;-66
2021/11/27 11:23:43;;;;;;;21.42;12.98;;;2.50;97.90;;;;;;4925533;29;20027;-66
2021/11/27 11:26:13;;;;;;;20.67;12.38;;;2.50;98.00;;;;;;4942607;28;20085;-68
2021/11/27 11:28:49;;;;;;;22.88;13.13;;;2.50;98.00;;;;;;4933051;28;20019;-68
2021/11/27 11:31:18;;;;;;;24.00;13.85;;;2.40;97.80;;;;;;4941782;28;20027;-68
2021/11/27 11:33:51;;;;;;;23.33;13.75;;;2.40;98.10;;;;;;4932543;28;20039;-66
2021/11/27 11:36:19;;;;;;;20.75;12.15;;;2.40;98.00;;;;;;4923868;28;20042;-66
2021/11/27 11:38:47;;;;;;;22.55;12.88;;;2.40;97.90;;;;;;4930368;28;20059;-65
2021/11/27 11:41:14;;;;;;;26.73;13.25;;;2.30;98.00;;;;;;4929906;28;20448;-66
2021/11/27 11:43:40;;;;;;;22.52;12.50;;;2.40;98.10;;;;;;4931228;28;20295;-66
2021/11/27 11:46:07;;;;;;;22.58;12.55;;;2.30;98.00;;;;;;4934704;28;20279;-66
2021/11/27 11:48:33;;;;;;;19.83;12.80;;;2.30;98.10;;;;;;4921179;28;20259;-66
2021/11/27 11:51:23;;;;;;;22.42;13.35;;;2.30;98.10;;;;;;4932792;28;20191;-66
2021/11/27 11:53:53;;;;;;;22.65;13.60;;;2.50;98.10;;;;;;4936915;28;20120;-66
2021/11/27 11:56:20;;;;;;;22.70;13.43;;;2.50;98.10;;;;;;4935988;28;20039;-66
2021/11/27 11:58:49;;;;;;;22.65;13.30;;;2.60;98.30;;;;;;4934467;28;20248;-66
2021/11/27 12:01:20;;;;;;;18.85;11.85;;;2.40;97.90;;;;;;4948706;28;20019;-65
2021/11/27 12:03:48;;;;;;;;;;;2.40;97.90;;;;;;4946712;28;20565;-66
2021/11/27 12:06:23;;;;;;;17.67;9.95;;;2.50;97.90;;;;;;4939810;28;20170;-66
2021/11/27 12:08:48;;;;;;;15.10;9.63;;;2.50;97.90;;;;;;4942737;28;20020;-66
2021/11/27 12:11:45;;;;;;;15.55;8.73;;;2.50;97.90;;;;;;4943628;28;20502;-65
2021/11/27 12:14:22;;;;;;;14.82;8.80;;;2.40;97.70;;;;;;4946113;28;20054;-66
2021/11/27 12:17:08;;;;;;;15.05;9.18;;;2.40;97.70;;;;;;4946238;28;20097;-66
2021/11/27 12:19:49;;;;;;;15.60;8.95;;;2.50;97.70;;;;;;4933531;28;20035;-66
2021/11/27 12:22:24;;;;;;;;;;;2.50;97.70;;;;;;4942405;28;20031;-66
2021/11/27 12:25:05;;;;;;;15.18;9.18;;;2.40;97.70;;;;;;4931473;28;19910;-66
2021/11/27 12:27:32;;;;;;;13.45;8.90;;;2.40;97.60;;;;;;4946284;28;20055;-66
2021/11/27 12:30:08;;;;;;;16.80;10.85;;;2.40;97.80;;;;;;4946772;28;20039;-65
2021/11/27 12:32:38;;;;;;;14.98;9.98;;;2.50;97.80;;;;;;4936324;28;20401;-66
2021/11/27 12:35:26;;;;;;;15.27;9.07;;;2.60;97.80;;;;;;4933088;28;20183;-65
2021/11/27 12:37:55;;;;;;;14.93;8.98;;;2.50;97.50;;;;;;4944830;28;20036;-65
2021/11/27 12:40:37;;;;;;;15.10;9.93;;;2.40;97.60;;;;;;4925686;28;20498;-66
2021/11/27 12:43:07;;;;;;;12.27;8.63;;;2.60;97.70;;;;;;4957165;28;20019;-65
2021/11/27 12:45:35;;;;;;;15.37;9.93;;;2.50;97.60;;;;;;4941176;28;20027;-66
2021/11/27 12:48:21;;;;;;;14.18;10.10;;;2.60;97.60;;;;;;4935881;28;20374;-68